sensor_id;sensor_type;location;lat;lon;timestamp;temperature;humidity
11126;DHT22;5617;54.046;10.676;2024-01-07T00:00:17;1.40;99.90
11126;DHT22;5617;54.046;10.676;2024-01-07T00:02:25;1.30;99.90
11126;DHT22;5617;54.046;10.676;2024-01-07T00:04:35;1.30;99.90
11126;DHT22;5617;54.046;10.676;2024-01-07T00:06:44;1.30;99.90
11126;DHT22;5617;54.046;10.676;2024-01-07T00:08:52;1.40;99.90
11126;DHT22;5617;54.046;10.676;2024-01-07T00:11:01;1.40;99.90
11126;DHT22;5617;54.046;10.676;2024-01-07T00:13:09;1.40;99.90
11126;DHT22;5617;54.046;10.676;2024-01-07T00:15:17;1.40;99.90
11126;DHT22;5617;54.046;10.676;2024-01-07T00:17:26;1.40;99.90
11126;DHT22;5617;54.046;10.676;2024-01-07T00:19:37;1.40;99.90
11126;DHT22;5617;54.046;10.676;2024-01-07T00:21:46;1.40;99.90
11126;DHT22;5617;54.046;10.676;2024-01-07T00:23:55;1.40;99.90
11126;DHT22;5617;54.046;10.676;2024-01-07T00:26:03;1.40;99.90
11126;DHT22;5617;54.046;10.676;2024-01-07T00:28:11;1.40;99.90
11126;DHT22;5617;54.046;10.676;2024-01-07T00:30:20;1.40;99.90
11126;DHT22;5617;54.046;10.676;2024-01-07T00:32:28;1.40;99.90
11126;DHT22;5617;54.046;10.676;2024-01-07T00:34:38;1.40;99.90
11126;DHT22;5617;54.046;10.676;2024-01-07T00:36:46;1.40;99.90
11126;DHT22;5617;54.046;10.676;2024-01-07T00:38:54;1.40;99.90
11126;DHT22;5617;54.046;10.676;2024-01-07T00:41:03;1.50;99.90
11126;DHT22;5617;54.046;10.676;2024-01-07T00:43:11;1.50;99.90
11126;DHT22;5617;54.046;10.676;2024-01-07T00:45:20;1.50;99.90
11126;DHT22;5617;54.046;10.676;2024-01-07T00:47:28;1.50;99.90
11126;DHT22;5617;54.046;10.676;2024-01-07T00:49:38;1.50;99.90
11126;DHT22;5617;54.046;10.676;2024-01-07T00:51:48;1.50;99.90
11126;DHT22;5617;54.046;10.676;2024-01-07T00:53:56;1.50;99.90
11126;DHT22;5617;54.046;10.676;2024-01-07T00:56:04;1.50;99.90
11126;DHT22;5617;54.046;10.676;2024-01-07T00:58:12;1.50;99.90
11126;DHT22;5617;54.046;10.676;2024-01-07T01:00:21;1.50;99.90
11126;DHT22;5617;54.046;10.676;2024-01-07T01:02:29;1.50;99.90
11126;DHT22;5617;54.046;10.676;2024-01-07T01:04:39;1.50;99.90
11126;DHT22;5617;54.046;10.676;2024-01-07T01:06:48;1.50;99.90
11126;DHT22;5617;54.046;10.676;2024-01-07T01:08:57;1.50;99.90
11126;DHT22;5617;54.046;10.676;2024-01-07T01:11:09;1.50;99.90
11126;DHT22;5617;54.046;10.676;2024-01-07T01:13:17;1.50;99.90
11126;DHT22;5617;54.046;10.676;2024-01-07T01:15:25;1.50;99.90
11126;DHT22;5617;54.046;10.676;2024-01-07T01:17:34;1.50;99.90
11126;DHT22;5617;54.046;10.676;2024-01-07T01:19:43;1.50;99.90
11126;DHT22;5617;54.046;10.676;2024-01-07T01:21:51;1.50;99.90
11126;DHT22;5617;54.046;10.676;2024-01-07T01:23:59;1.50;99.90
11126;DHT22;5617;54.046;10.676;2024-01-07T01:26:08;1.50;99.90
11126;DHT22;5617;54.046;10.676;2024-01-07T01:28:16;1.50;99.90
11126;DHT22;5617;54.046;10.676;2024-01-07T01:30:24;1.50;99.90
11126;DHT22;5617;54.046;10.676;2024-01-07T01:32:34;1.60;99.90
11126;DHT22;5617;54.046;10.676;2024-01-07T01:34:44;1.60;99.90
11126;DHT22;5617;54.046;10.676;2024-01-07T01:36:52;1.60;99.90
11126;DHT22;5617;54.046;10.676;2024-01-07T01:39:01;1.60;99.90
11126;DHT22;5617;54.046;10.676;2024-01-07T01:41:09;1.60;99.90
11126;DHT22;5617;54.046;10.676;2024-01-07T01:43:22;1.60;99.90
11126;DHT22;5617;54.046;10.676;2024-01-07T01:45:30;1.60;99.90
11126;DHT22;5617;54.046;10.676;2024-01-07T01:47:39;1.70;99.90
11126;DHT22;5617;54.046;10.676;2024-01-07T01:49:49;1.70;99.90
11126;DHT22;5617;54.046;10.676;2024-01-07T01:51:57;1.70;99.90
11126;DHT22;5617;54.046;10.676;2024-01-07T01:54:06;1.70;99.90
11126;DHT22;5617;54.046;10.676;2024-01-07T01:56:18;1.70;99.90
11126;DHT22;5617;54.046;10.676;2024-01-07T01:58:28;1.70;99.90
11126;DHT22;5617;54.046;10.676;2024-01-07T02:00:36;1.70;99.90
11126;DHT22;5617;54.046;10.676;2024-01-07T02:02:45;1.60;99.90
11126;DHT22;5617;54.046;10.676;2024-01-07T02:04:55;1.60;99.90
11126;DHT22;5617;54.046;10.676;2024-01-07T02:07:03;1.60;99.90
11126;DHT22;5617;54.046;10.676;2024-01-07T02:09:12;1.60;99.90
11126;DHT22;5617;54.046;10.676;2024-01-07T02:11:21;1.60;99.90
11126;DHT22;5617;54.046;10.676;2024-01-07T02:13:30;1.60;99.90
11126;DHT22;5617;54.046;10.676;2024-01-07T02:15:38;1.60;99.90
11126;DHT22;5617;54.046;10.676;2024-01-07T02:17:47;1.60;99.90
11126;DHT22;5617;54.046;10.676;2024-01-07T02:19:56;1.70;99.90
11126;DHT22;5617;54.046;10.676;2024-01-07T02:22:05;1.70;99.90
11126;DHT22;5617;54.046;10.676;2024-01-07T02:24:16;1.70;99.90
11126;DHT22;5617;54.046;10.676;2024-01-07T02:26:25;1.70;99.90
11126;DHT22;5617;54.046;10.676;2024-01-07T02:28:37;1.70;99.90
11126;DHT22;5617;54.046;10.676;2024-01-07T02:30:45;1.70;99.90
11126;DHT22;5617;54.046;10.676;2024-01-07T02:32:54;1.70;99.90
11126;DHT22;5617;54.046;10.676;2024-01-07T02:35:01;1.70;99.90
11126;DHT22;5617;54.046;10.676;2024-01-07T02:37:10;1.70;99.90
11126;DHT22;5617;54.046;10.676;2024-01-07T02:39:20;1.70;99.90
11126;DHT22;5617;54.046;10.676;2024-01-07T02:41:28;1.70;99.90
11126;DHT22;5617;54.046;10.676;2024-01-07T02:43:37;1.70;99.90
11126;DHT22;5617;54.046;10.676;2024-01-07T02:45:45;1.70;99.90
11126;DHT22;5617;54.046;10.676;2024-01-07T02:47:53;1.70;99.90
11126;DHT22;5617;54.046;10.676;2024-01-07T02:50:02;1.70;99.90
11126;DHT22;5617;54.046;10.676;2024-01-07T02:52:10;1.70;99.90
11126;DHT22;5617;54.046;10.676;2024-01-07T02:54:19;1.80;99.90
11126;DHT22;5617;54.046;10.676;2024-01-07T02:56:28;1.70;99.90
11126;DHT22;5617;54.046;10.676;2024-01-07T02:58:36;1.70;99.90
11126;DHT22;5617;54.046;10.676;2024-01-07T03:00:44;1.80;99.90
11126;DHT22;5617;54.046;10.676;2024-01-07T03:02:53;1.70;99.90
11126;DHT22;5617;54.046;10.676;2024-01-07T03:05:00;1.70;99.90
11126;DHT22;5617;54.046;10.676;2024-01-07T03:07:09;1.70;99.90
11126;DHT22;5617;54.046;10.676;2024-01-07T03:09:17;1.70;99.90
11126;DHT22;5617;54.046;10.676;2024-01-07T03:11:26;1.70;99.90
11126;DHT22;5617;54.046;10.676;2024-01-07T03:13:34;1.70;99.90
11126;DHT22;5617;54.046;10.676;2024-01-07T03:15:42;1.70;99.90
11126;DHT22;5617;54.046;10.676;2024-01-07T03:17:51;1.70;99.90
11126;DHT22;5617;54.046;10.676;2024-01-07T03:20:00;1.70;99.90
11126;DHT22;5617;54.046;10.676;2024-01-07T03:22:09;1.70;99.90
11126;DHT22;5617;54.046;10.676;2024-01-07T03:24:17;1.70;99.90
11126;DHT22;5617;54.046;10.676;2024-01-07T03:26:35;1.70;99.90
11126;DHT22;5617;54.046;10.676;2024-01-07T03:28:43;1.60;99.90
11126;DHT22;5617;54.046;10.676;2024-01-07T03:30:52;1.60;99.90
11126;DHT22;5617;54.046;10.676;2024-01-07T03:33:00;1.60;99.90
11126;DHT22;5617;54.046;10.676;2024-01-07T03:35:09;1.60;99.90
11126;DHT22;5617;54.046;10.676;2024-01-07T03:37:18;1.50;99.90
11126;DHT22;5617;54.046;10.676;2024-01-07T03:39:26;1.50;99.90
11126;DHT22;5617;54.046;10.676;2024-01-07T03:41:36;1.50;99.90
11126;DHT22;5617;54.046;10.676;2024-01-07T03:43:44;1.50;99.90
11126;DHT22;5617;54.046;10.676;2024-01-07T03:45:53;1.50;99.90
11126;DHT22;5617;54.046;10.676;2024-01-07T03:48:01;1.50;99.90
11126;DHT22;5617;54.046;10.676;2024-01-07T03:50:10;1.50;99.90
11126;DHT22;5617;54.046;10.676;2024-01-07T03:52:18;1.40;99.90
11126;DHT22;5617;54.046;10.676;2024-01-07T03:54:26;1.40;99.90
11126;DHT22;5617;54.046;10.676;2024-01-07T03:56:36;1.40;99.90
11126;DHT22;5617;54.046;10.676;2024-01-07T03:58:44;1.40;99.90
11126;DHT22;5617;54.046;10.676;2024-01-07T04:00:52;1.40;99.90
11126;DHT22;5617;54.046;10.676;2024-01-07T04:03:01;1.40;99.90
11126;DHT22;5617;54.046;10.676;2024-01-07T04:05:09;1.40;99.90
11126;DHT22;5617;54.046;10.676;2024-01-07T04:07:18;1.30;99.90
11126;DHT22;5617;54.046;10.676;2024-01-07T04:09:26;1.30;99.90
11126;DHT22;5617;54.046;10.676;2024-01-07T04:11:40;1.30;99.90
11126;DHT22;5617;54.046;10.676;2024-01-07T04:13:48;1.30;99.90
11126;DHT22;5617;54.046;10.676;2024-01-07T04:15:57;1.30;99.90
11126;DHT22;5617;54.046;10.676;2024-01-07T04:18:05;1.20;99.90
11126;DHT22;5617;54.046;10.676;2024-01-07T04:20:14;1.20;99.90
11126;DHT22;5617;54.046;10.676;2024-01-07T04:22:22;1.20;99.90
11126;DHT22;5617;54.046;10.676;2024-01-07T04:24:30;1.10;99.90
11126;DHT22;5617;54.046;10.676;2024-01-07T04:26:40;1.10;99.90
11126;DHT22;5617;54.046;10.676;2024-01-07T04:28:48;1.00;99.90
11126;DHT22;5617;54.046;10.676;2024-01-07T04:30:56;1.00;99.90
11126;DHT22;5617;54.046;10.676;2024-01-07T04:33:04;1.00;99.90
11126;DHT22;5617;54.046;10.676;2024-01-07T04:35:12;1.00;99.90
11126;DHT22;5617;54.046;10.676;2024-01-07T04:37:21;1.00;99.90
11126;DHT22;5617;54.046;10.676;2024-01-07T04:39:29;1.00;99.90
11126;DHT22;5617;54.046;10.676;2024-01-07T04:41:37;1.00;99.90
11126;DHT22;5617;54.046;10.676;2024-01-07T04:43:55;1.00;99.90
11126;DHT22;5617;54.046;10.676;2024-01-07T04:46:03;1.00;99.90
11126;DHT22;5617;54.046;10.676;2024-01-07T04:48:12;1.00;99.90
11126;DHT22;5617;54.046;10.676;2024-01-07T04:50:21;0.90;99.90
11126;DHT22;5617;54.046;10.676;2024-01-07T04:52:30;0.90;99.90
11126;DHT22;5617;54.046;10.676;2024-01-07T04:54:38;0.90;99.90
11126;DHT22;5617;54.046;10.676;2024-01-07T04:56:46;1.00;99.90
11126;DHT22;5617;54.046;10.676;2024-01-07T04:58:56;0.90;99.90
11126;DHT22;5617;54.046;10.676;2024-01-07T05:01:04;0.90;99.90
11126;DHT22;5617;54.046;10.676;2024-01-07T05:03:12;0.90;99.90
11126;DHT22;5617;54.046;10.676;2024-01-07T05:05:21;0.90;99.90
11126;DHT22;5617;54.046;10.676;2024-01-07T05:07:29;0.90;99.90
11126;DHT22;5617;54.046;10.676;2024-01-07T05:09:39;0.90;99.90
11126;DHT22;5617;54.046;10.676;2024-01-07T05:11:47;0.80;99.90
11126;DHT22;5617;54.046;10.676;2024-01-07T05:13:57;0.80;99.90
11126;DHT22;5617;54.046;10.676;2024-01-07T05:16:06;0.80;99.90
11126;DHT22;5617;54.046;10.676;2024-01-07T05:18:14;0.70;99.90
11126;DHT22;5617;54.046;10.676;2024-01-07T05:20:27;0.70;99.90
11126;DHT22;5617;54.046;10.676;2024-01-07T05:22:36;0.70;99.90
11126;DHT22;5617;54.046;10.676;2024-01-07T05:24:44;0.70;99.90
11126;DHT22;5617;54.046;10.676;2024-01-07T05:26:52;0.70;99.90
11126;DHT22;5617;54.046;10.676;2024-01-07T05:29:01;0.70;99.90
11126;DHT22;5617;54.046;10.676;2024-01-07T05:31:14;0.60;99.90
11126;DHT22;5617;54.046;10.676;2024-01-07T05:33:23;0.50;99.90
11126;DHT22;5617;54.046;10.676;2024-01-07T05:35:32;0.40;99.90
11126;DHT22;5617;54.046;10.676;2024-01-07T05:37:40;0.40;99.90
11126;DHT22;5617;54.046;10.676;2024-01-07T05:39:48;0.40;99.90
11126;DHT22;5617;54.046;10.676;2024-01-07T05:41:56;0.40;99.90
11126;DHT22;5617;54.046;10.676;2024-01-07T05:44:07;0.30;99.90
11126;DHT22;5617;54.046;10.676;2024-01-07T05:46:16;0.30;99.90
11126;DHT22;5617;54.046;10.676;2024-01-07T05:48:23;0.20;99.90
11126;DHT22;5617;54.046;10.676;2024-01-07T05:50:32;0.20;99.90
11126;DHT22;5617;54.046;10.676;2024-01-07T05:52:40;0.10;99.90
11126;DHT22;5617;54.046;10.676;2024-01-07T05:54:48;0.00;99.90
11126;DHT22;5617;54.046;10.676;2024-01-07T05:56:57;0.00;99.90
11126;DHT22;5617;54.046;10.676;2024-01-07T05:59:06;-0.10;99.90
11126;DHT22;5617;54.046;10.676;2024-01-07T06:01:18;-0.20;99.90
11126;DHT22;5617;54.046;10.676;2024-01-07T06:03:27;-0.20;99.90
11126;DHT22;5617;54.046;10.676;2024-01-07T06:05:38;-0.30;99.90
11126;DHT22;5617;54.046;10.676;2024-01-07T06:07:46;-0.40;99.90
11126;DHT22;5617;54.046;10.676;2024-01-07T06:09:54;-0.40;99.90
11126;DHT22;5617;54.046;10.676;2024-01-07T06:12:03;-0.50;99.90
11126;DHT22;5617;54.046;10.676;2024-01-07T06:14:13;-0.50;99.90
11126;DHT22;5617;54.046;10.676;2024-01-07T06:16:22;-0.50;99.90
11126;DHT22;5617;54.046;10.676;2024-01-07T06:18:40;-0.60;99.90
11126;DHT22;5617;54.046;10.676;2024-01-07T06:20:48;-0.60;99.90
11126;DHT22;5617;54.046;10.676;2024-01-07T06:22:57;-0.70;99.90
11126;DHT22;5617;54.046;10.676;2024-01-07T06:25:06;-0.70;99.90
11126;DHT22;5617;54.046;10.676;2024-01-07T06:27:16;-0.70;99.90
11126;DHT22;5617;54.046;10.676;2024-01-07T06:29:25;-0.80;99.90
11126;DHT22;5617;54.046;10.676;2024-01-07T06:31:34;-0.80;99.90
11126;DHT22;5617;54.046;10.676;2024-01-07T06:33:42;-0.90;99.90
11126;DHT22;5617;54.046;10.676;2024-01-07T06:35:51;-0.90;99.90
11126;DHT22;5617;54.046;10.676;2024-01-07T06:37:59;-0.90;99.90
11126;DHT22;5617;54.046;10.676;2024-01-07T06:40:11;-0.90;99.90
11126;DHT22;5617;54.046;10.676;2024-01-07T06:42:19;-0.90;99.90
11126;DHT22;5617;54.046;10.676;2024-01-07T06:44:29;-0.90;99.90
11126;DHT22;5617;54.046;10.676;2024-01-07T06:46:37;-0.90;99.90
11126;DHT22;5617;54.046;10.676;2024-01-07T06:48:45;-0.90;99.90
11126;DHT22;5617;54.046;10.676;2024-01-07T06:50:58;-0.90;99.90
11126;DHT22;5617;54.046;10.676;2024-01-07T06:53:06;-0.90;99.90
11126;DHT22;5617;54.046;10.676;2024-01-07T06:55:16;-0.90;99.90
11126;DHT22;5617;54.046;10.676;2024-01-07T06:57:24;-0.80;99.90
11126;DHT22;5617;54.046;10.676;2024-01-07T06:59:34;-0.80;99.90
11126;DHT22;5617;54.046;10.676;2024-01-07T07:01:42;-0.80;99.90
11126;DHT22;5617;54.046;10.676;2024-01-07T07:03:50;-0.80;99.90
11126;DHT22;5617;54.046;10.676;2024-01-07T07:05:58;-0.90;99.90
11126;DHT22;5617;54.046;10.676;2024-01-07T07:08:06;-0.90;99.90
11126;DHT22;5617;54.046;10.676;2024-01-07T07:10:14;-0.90;99.90
11126;DHT22;5617;54.046;10.676;2024-01-07T07:12:23;-0.90;99.90
11126;DHT22;5617;54.046;10.676;2024-01-07T07:14:31;-0.90;99.90
11126;DHT22;5617;54.046;10.676;2024-01-07T07:16:40;-0.90;99.90
11126;DHT22;5617;54.046;10.676;2024-01-07T07:18:49;-0.80;99.90
11126;DHT22;5617;54.046;10.676;2024-01-07T07:20:57;-0.80;99.90
11126;DHT22;5617;54.046;10.676;2024-01-07T07:23:05;-0.80;99.90
11126;DHT22;5617;54.046;10.676;2024-01-07T07:25:14;-0.80;99.90
11126;DHT22;5617;54.046;10.676;2024-01-07T07:27:22;-0.90;99.90
11126;DHT22;5617;54.046;10.676;2024-01-07T07:29:30;-0.90;99.90
11126;DHT22;5617;54.046;10.676;2024-01-07T07:31:40;-0.90;99.90
11126;DHT22;5617;54.046;10.676;2024-01-07T07:33:49;-0.90;99.90
11126;DHT22;5617;54.046;10.676;2024-01-07T07:35:57;-0.70;99.90
11126;DHT22;5617;54.046;10.676;2024-01-07T07:38:06;-0.90;99.90
11126;DHT22;5617;54.046;10.676;2024-01-07T07:40:14;-0.80;99.90
11126;DHT22;5617;54.046;10.676;2024-01-07T07:42:23;-0.90;99.90
11126;DHT22;5617;54.046;10.676;2024-01-07T07:44:37;-1.00;99.90
11126;DHT22;5617;54.046;10.676;2024-01-07T07:46:47;-1.00;99.90
11126;DHT22;5617;54.046;10.676;2024-01-07T07:48:56;-1.00;99.90
11126;DHT22;5617;54.046;10.676;2024-01-07T07:51:05;-1.00;99.90
11126;DHT22;5617;54.046;10.676;2024-01-07T07:53:13;-1.00;99.90
11126;DHT22;5617;54.046;10.676;2024-01-07T07:55:21;-1.10;99.90
11126;DHT22;5617;54.046;10.676;2024-01-07T07:57:30;-1.10;99.90
11126;DHT22;5617;54.046;10.676;2024-01-07T07:59:38;-1.10;99.90
11126;DHT22;5617;54.046;10.676;2024-01-07T08:01:48;-1.10;99.90
11126;DHT22;5617;54.046;10.676;2024-01-07T08:03:57;-1.20;99.90
11126;DHT22;5617;54.046;10.676;2024-01-07T08:06:06;-1.20;99.90
11126;DHT22;5617;54.046;10.676;2024-01-07T08:08:20;-1.20;99.90
11126;DHT22;5617;54.046;10.676;2024-01-07T08:10:28;-1.20;99.90
11126;DHT22;5617;54.046;10.676;2024-01-07T08:12:39;-1.20;99.90
11126;DHT22;5617;54.046;10.676;2024-01-07T08:14:47;-1.30;99.90
11126;DHT22;5617;54.046;10.676;2024-01-07T08:16:57;-1.30;99.90
11126;DHT22;5617;54.046;10.676;2024-01-07T08:19:05;-1.30;99.90
11126;DHT22;5617;54.046;10.676;2024-01-07T08:21:21;-1.30;99.90
11126;DHT22;5617;54.046;10.676;2024-01-07T08:23:30;-1.30;99.90
11126;DHT22;5617;54.046;10.676;2024-01-07T08:25:39;-1.30;99.90
11126;DHT22;5617;54.046;10.676;2024-01-07T08:27:48;-1.30;99.90
11126;DHT22;5617;54.046;10.676;2024-01-07T08:30:01;-1.40;99.90
11126;DHT22;5617;54.046;10.676;2024-01-07T08:32:11;-1.40;99.90
11126;DHT22;5617;54.046;10.676;2024-01-07T08:34:20;-1.40;99.90
11126;DHT22;5617;54.046;10.676;2024-01-07T08:36:29;-1.40;99.90
11126;DHT22;5617;54.046;10.676;2024-01-07T08:38:37;-1.40;99.90
11126;DHT22;5617;54.046;10.676;2024-01-07T08:40:46;-1.40;99.90
11126;DHT22;5617;54.046;10.676;2024-01-07T08:42:55;-1.40;99.90
11126;DHT22;5617;54.046;10.676;2024-01-07T08:45:05;-1.40;99.90
11126;DHT22;5617;54.046;10.676;2024-01-07T08:47:15;-1.50;99.90
11126;DHT22;5617;54.046;10.676;2024-01-07T08:49:24;-1.50;99.90
11126;DHT22;5617;54.046;10.676;2024-01-07T08:51:33;-1.50;99.90
11126;DHT22;5617;54.046;10.676;2024-01-07T08:53:41;-1.50;99.90
11126;DHT22;5617;54.046;10.676;2024-01-07T08:55:49;-1.50;99.90
11126;DHT22;5617;54.046;10.676;2024-01-07T08:57:58;-1.50;99.90
11126;DHT22;5617;54.046;10.676;2024-01-07T09:00:08;-1.60;99.90
11126;DHT22;5617;54.046;10.676;2024-01-07T09:02:17;-1.60;99.90
11126;DHT22;5617;54.046;10.676;2024-01-07T09:04:26;-1.60;99.90
11126;DHT22;5617;54.046;10.676;2024-01-07T09:06:34;-1.60;99.90
11126;DHT22;5617;54.046;10.676;2024-01-07T09:08:42;-1.60;99.90
11126;DHT22;5617;54.046;10.676;2024-01-07T09:10:51;-1.60;99.90
11126;DHT22;5617;54.046;10.676;2024-01-07T09:12:59;-1.60;99.90
11126;DHT22;5617;54.046;10.676;2024-01-07T09:15:08;-1.70;99.90
11126;DHT22;5617;54.046;10.676;2024-01-07T09:17:18;-1.70;99.90
11126;DHT22;5617;54.046;10.676;2024-01-07T09:19:26;-1.60;99.90
11126;DHT22;5617;54.046;10.676;2024-01-07T09:21:35;-1.70;99.90
11126;DHT22;5617;54.046;10.676;2024-01-07T09:23:44;-1.70;99.90
11126;DHT22;5617;54.046;10.676;2024-01-07T09:25:52;-1.60;99.90
11126;DHT22;5617;54.046;10.676;2024-01-07T09:28:01;-1.60;99.90
11126;DHT22;5617;54.046;10.676;2024-01-07T09:30:10;-1.60;99.90
11126;DHT22;5617;54.046;10.676;2024-01-07T09:32:23;-1.50;99.90
11126;DHT22;5617;54.046;10.676;2024-01-07T09:34:31;-1.50;99.90
11126;DHT22;5617;54.046;10.676;2024-01-07T09:36:40;-1.40;99.90
11126;DHT22;5617;54.046;10.676;2024-01-07T09:38:49;-1.30;99.90
11126;DHT22;5617;54.046;10.676;2024-01-07T09:40:58;-1.30;99.90
11126;DHT22;5617;54.046;10.676;2024-01-07T09:43:07;-1.20;99.90
11126;DHT22;5617;54.046;10.676;2024-01-07T09:45:16;-1.10;99.90
11126;DHT22;5617;54.046;10.676;2024-01-07T09:47:27;-1.00;99.90
11126;DHT22;5617;54.046;10.676;2024-01-07T09:49:35;-0.90;99.90
11126;DHT22;5617;54.046;10.676;2024-01-07T09:51:45;-0.80;99.90
11126;DHT22;5617;54.046;10.676;2024-01-07T09:53:59;-0.70;99.90
11126;DHT22;5617;54.046;10.676;2024-01-07T09:56:20;-0.60;99.90
11126;DHT22;5617;54.046;10.676;2024-01-07T09:58:30;-0.50;99.90
11126;DHT22;5617;54.046;10.676;2024-01-07T10:00:39;-0.40;99.90
11126;DHT22;5617;54.046;10.676;2024-01-07T10:02:49;-0.40;99.90
11126;DHT22;5617;54.046;10.676;2024-01-07T10:04:57;-0.40;99.90
11126;DHT22;5617;54.046;10.676;2024-01-07T10:07:05;-0.30;99.90
11126;DHT22;5617;54.046;10.676;2024-01-07T10:09:15;-0.20;99.90
11126;DHT22;5617;54.046;10.676;2024-01-07T10:11:23;-0.20;99.90
11126;DHT22;5617;54.046;10.676;2024-01-07T10:13:31;-0.10;99.90
11126;DHT22;5617;54.046;10.676;2024-01-07T10:15:39;-0.10;99.90
11126;DHT22;5617;54.046;10.676;2024-01-07T10:17:54;0.00;99.90
11126;DHT22;5617;54.046;10.676;2024-01-07T10:20:05;0.20;99.90
11126;DHT22;5617;54.046;10.676;2024-01-07T10:22:16;0.20;99.90
11126;DHT22;5617;54.046;10.676;2024-01-07T10:24:25;0.30;99.90
11126;DHT22;5617;54.046;10.676;2024-01-07T10:26:33;0.40;99.90
11126;DHT22;5617;54.046;10.676;2024-01-07T10:28:46;0.50;99.90
11126;DHT22;5617;54.046;10.676;2024-01-07T10:30:54;0.70;99.90
11126;DHT22;5617;54.046;10.676;2024-01-07T10:33:04;0.60;99.90
11126;DHT22;5617;54.046;10.676;2024-01-07T10:35:16;0.60;99.90
11126;DHT22;5617;54.046;10.676;2024-01-07T10:37:26;0.60;99.90
11126;DHT22;5617;54.046;10.676;2024-01-07T10:39:34;0.70;99.90
11126;DHT22;5617;54.046;10.676;2024-01-07T10:41:45;0.70;99.90
11126;DHT22;5617;54.046;10.676;2024-01-07T10:43:54;0.80;99.90
11126;DHT22;5617;54.046;10.676;2024-01-07T10:46:05;0.80;99.90
11126;DHT22;5617;54.046;10.676;2024-01-07T10:48:18;0.80;99.90
11126;DHT22;5617;54.046;10.676;2024-01-07T10:50:27;0.90;99.90
11126;DHT22;5617;54.046;10.676;2024-01-07T10:52:36;1.00;99.90
11126;DHT22;5617;54.046;10.676;2024-01-07T10:54:47;0.90;99.90
11126;DHT22;5617;54.046;10.676;2024-01-07T10:56:58;1.10;99.90
11126;DHT22;5617;54.046;10.676;2024-01-07T10:59:07;1.20;99.90
11126;DHT22;5617;54.046;10.676;2024-01-07T11:01:16;1.30;99.90
11126;DHT22;5617;54.046;10.676;2024-01-07T11:03:32;1.40;99.90
11126;DHT22;5617;54.046;10.676;2024-01-07T11:05:52;1.50;99.90
11126;DHT22;5617;54.046;10.676;2024-01-07T11:08:06;1.40;99.90
11126;DHT22;5617;54.046;10.676;2024-01-07T11:10:19;1.60;99.90
11126;DHT22;5617;54.046;10.676;2024-01-07T11:12:37;1.70;99.90
11126;DHT22;5617;54.046;10.676;2024-01-07T11:14:45;1.80;99.90
11126;DHT22;5617;54.046;10.676;2024-01-07T11:16:59;1.90;99.90
11126;DHT22;5617;54.046;10.676;2024-01-07T11:19:13;2.10;99.90
11126;DHT22;5617;54.046;10.676;2024-01-07T11:21:23;2.20;99.90
11126;DHT22;5617;54.046;10.676;2024-01-07T11:23:32;2.30;99.90
11126;DHT22;5617;54.046;10.676;2024-01-07T11:25:40;2.30;99.90
11126;DHT22;5617;54.046;10.676;2024-01-07T11:27:48;2.30;99.90
11126;DHT22;5617;54.046;10.676;2024-01-07T11:29:58;2.50;99.90
11126;DHT22;5617;54.046;10.676;2024-01-07T11:32:12;2.70;99.90
11126;DHT22;5617;54.046;10.676;2024-01-07T11:34:39;2.70;99.90
11126;DHT22;5617;54.046;10.676;2024-01-07T11:36:49;2.80;99.90
11126;DHT22;5617;54.046;10.676;2024-01-07T11:38:57;2.90;99.90
11126;DHT22;5617;54.046;10.676;2024-01-07T11:41:08;2.80;99.90
11126;DHT22;5617;54.046;10.676;2024-01-07T11:43:17;2.80;99.90
11126;DHT22;5617;54.046;10.676;2024-01-07T11:45:25;3.00;99.90
11126;DHT22;5617;54.046;10.676;2024-01-07T11:47:34;3.20;99.90
11126;DHT22;5617;54.046;10.676;2024-01-07T11:49:44;3.20;99.90
11126;DHT22;5617;54.046;10.676;2024-01-07T11:51:51;3.20;99.90
11126;DHT22;5617;54.046;10.676;2024-01-07T11:54:01;3.20;99.90
11126;DHT22;5617;54.046;10.676;2024-01-07T11:56:09;3.10;99.90
11126;DHT22;5617;54.046;10.676;2024-01-07T11:58:21;3.20;99.90
11126;DHT22;5617;54.046;10.676;2024-01-07T12:00:31;3.20;99.90
11126;DHT22;5617;54.046;10.676;2024-01-07T12:02:40;3.20;99.90
11126;DHT22;5617;54.046;10.676;2024-01-07T12:04:50;3.30;99.90
11126;DHT22;5617;54.046;10.676;2024-01-07T12:06:59;3.20;99.90
11126;DHT22;5617;54.046;10.676;2024-01-07T12:09:08;3.00;99.90
11126;DHT22;5617;54.046;10.676;2024-01-07T12:11:19;2.90;99.90
11126;DHT22;5617;54.046;10.676;2024-01-07T12:13:28;3.00;99.90
11126;DHT22;5617;54.046;10.676;2024-01-07T12:15:37;3.00;99.90
11126;DHT22;5617;54.046;10.676;2024-01-07T12:17:55;3.00;99.90
11126;DHT22;5617;54.046;10.676;2024-01-07T12:20:07;3.10;99.90
11126;DHT22;5617;54.046;10.676;2024-01-07T12:22:17;3.10;99.90
11126;DHT22;5617;54.046;10.676;2024-01-07T12:24:26;3.10;99.90
11126;DHT22;5617;54.046;10.676;2024-01-07T12:26:34;3.10;99.90
11126;DHT22;5617;54.046;10.676;2024-01-07T12:28:51;3.20;99.90
11126;DHT22;5617;54.046;10.676;2024-01-07T12:31:00;3.10;99.90
11126;DHT22;5617;54.046;10.676;2024-01-07T12:33:10;3.00;99.90
11126;DHT22;5617;54.046;10.676;2024-01-07T12:35:20;2.80;99.90
11126;DHT22;5617;54.046;10.676;2024-01-07T12:37:29;2.80;99.90
11126;DHT22;5617;54.046;10.676;2024-01-07T12:39:37;2.80;99.90
11126;DHT22;5617;54.046;10.676;2024-01-07T12:41:45;2.80;99.90
11126;DHT22;5617;54.046;10.676;2024-01-07T12:43:54;2.60;99.90
11126;DHT22;5617;54.046;10.676;2024-01-07T12:46:02;2.60;99.90
11126;DHT22;5617;54.046;10.676;2024-01-07T12:48:12;2.70;99.90
11126;DHT22;5617;54.046;10.676;2024-01-07T12:50:22;2.60;99.90
11126;DHT22;5617;54.046;10.676;2024-01-07T12:52:35;2.50;99.90
11126;DHT22;5617;54.046;10.676;2024-01-07T12:54:44;2.40;99.90
11126;DHT22;5617;54.046;10.676;2024-01-07T12:56:54;2.30;99.90
11126;DHT22;5617;54.046;10.676;2024-01-07T12:59:02;2.30;99.90
11126;DHT22;5617;54.046;10.676;2024-01-07T13:01:11;2.20;99.90
11126;DHT22;5617;54.046;10.676;2024-01-07T13:03:19;2.20;99.90
11126;DHT22;5617;54.046;10.676;2024-01-07T13:05:29;2.00;99.90
11126;DHT22;5617;54.046;10.676;2024-01-07T13:07:38;1.80;99.90
11126;DHT22;5617;54.046;10.676;2024-01-07T13:09:46;1.60;99.90
11126;DHT22;5617;54.046;10.676;2024-01-07T13:11:55;1.40;99.90
11126;DHT22;5617;54.046;10.676;2024-01-07T13:14:05;1.20;99.90
11126;DHT22;5617;54.046;10.676;2024-01-07T13:16:13;0.90;99.90
11126;DHT22;5617;54.046;10.676;2024-01-07T13:18:21;0.90;99.90
11126;DHT22;5617;54.046;10.676;2024-01-07T13:20:31;0.70;99.90
11126;DHT22;5617;54.046;10.676;2024-01-07T13:22:41;0.60;99.90
11126;DHT22;5617;54.046;10.676;2024-01-07T13:24:50;0.40;99.90
11126;DHT22;5617;54.046;10.676;2024-01-07T13:26:58;0.40;99.90
11126;DHT22;5617;54.046;10.676;2024-01-07T13:29:07;0.30;99.90
11126;DHT22;5617;54.046;10.676;2024-01-07T13:31:15;0.30;99.90
11126;DHT22;5617;54.046;10.676;2024-01-07T13:33:24;0.10;99.90
11126;DHT22;5617;54.046;10.676;2024-01-07T13:35:33;0.10;99.90
11126;DHT22;5617;54.046;10.676;2024-01-07T13:37:42;0.10;99.90
11126;DHT22;5617;54.046;10.676;2024-01-07T13:39:50;0.00;99.90
11126;DHT22;5617;54.046;10.676;2024-01-07T13:41:58;-0.10;99.90
11126;DHT22;5617;54.046;10.676;2024-01-07T13:44:07;-0.10;99.90